createdAt,value
2018-10-16T00:02:02.917Z,10.30
2018-10-16T00:04:31.460Z,10.30
2018-10-16T00:07:00.163Z,10.30
2018-10-16T00:09:28.709Z,10.20
2018-10-16T00:12:02.435Z,10.20
2018-10-16T00:14:31.392Z,10.10
2018-10-16T00:17:01.345Z,10.10
2018-10-16T00:19:29.888Z,10.10
2018-10-16T00:21:59.013Z,10.00
2018-10-16T00:24:27.530Z,10.00
2018-10-16T00:26:56.046Z,10.00
2018-10-16T00:29:24.564Z,9.90
2018-10-16T00:31:53.056Z,9.90
2018-10-16T00:34:21.585Z,9.90
2018-10-16T00:36:50.129Z,9.90
2018-10-16T00:39:18.653Z,9.90
2018-10-16T00:41:53.272Z,9.90
2018-10-16T00:44:21.933Z,9.90
2018-10-16T00:46:50.582Z,9.80
2018-10-16T00:49:19.134Z,9.80
2018-10-16T00:51:47.690Z,9.80
2018-10-16T00:54:16.201Z,9.80
2018-10-16T00:56:44.734Z,9.80
2018-10-16T00:59:13.227Z,9.80
2018-10-16T01:01:41.848Z,9.80
2018-10-16T01:04:10.359Z,9.80
2018-10-16T01:06:39.191Z,9.80
2018-10-16T01:09:09.728Z,9.70
2018-10-16T01:11:38.768Z,9.70
2018-10-16T01:14:07.308Z,9.60
2018-10-16T01:16:35.827Z,9.60
2018-10-16T01:19:04.365Z,9.50
2018-10-16T01:21:32.899Z,9.50
2018-10-16T01:24:01.398Z,9.40
2018-10-16T01:26:29.929Z,9.40
2018-10-16T01:28:58.460Z,9.40
2018-10-16T01:31:27.114Z,9.40
2018-10-16T01:33:55.643Z,9.30
2018-10-16T01:36:24.189Z,9.30
2018-10-16T01:38:52.744Z,9.30
2018-10-16T01:41:21.275Z,9.30
2018-10-16T01:43:49.778Z,9.30
2018-10-16T01:46:18.285Z,9.30
2018-10-16T01:48:47.500Z,9.30
2018-10-16T01:51:16.720Z,9.30
2018-10-16T01:53:45.308Z,9.30
2018-10-16T01:56:13.810Z,9.30
2018-10-16T01:58:42.304Z,9.20
2018-10-16T02:01:10.827Z,9.20
2018-10-16T02:03:39.370Z,9.10
2018-10-16T02:06:07.884Z,9.10
2018-10-16T02:08:36.437Z,9.10
2018-10-16T02:11:05.151Z,9.10
2018-10-16T02:13:33.702Z,9.10
2018-10-16T02:16:02.324Z,9.10
2018-10-16T02:18:30.837Z,9.00
2018-10-16T02:20:59.387Z,9.00
2018-10-16T02:23:27.927Z,9.00
2018-10-16T02:25:56.452Z,9.00
2018-10-16T02:28:24.981Z,9.00
2018-10-16T02:30:53.480Z,9.00
2018-10-16T02:33:22.015Z,9.10
2018-10-16T02:35:50.587Z,9.10
2018-10-16T02:38:19.112Z,9.10
2018-10-16T02:40:47.639Z,9.10
2018-10-16T02:43:16.177Z,9.00
2018-10-16T02:45:44.860Z,9.00
2018-10-16T02:48:13.363Z,9.00
2018-10-16T02:50:41.959Z,8.90
2018-10-16T02:53:10.548Z,8.90
2018-10-16T02:55:39.069Z,8.80
2018-10-16T02:58:07.527Z,8.80
2018-10-16T03:00:36.053Z,8.70
2018-10-16T03:03:04.678Z,8.70
2018-10-16T03:05:33.195Z,8.70
2018-10-16T03:08:01.765Z,8.60
2018-10-16T03:10:30.363Z,8.60
2018-10-16T03:12:58.960Z,8.60
2018-10-16T03:15:27.469Z,8.50
2018-10-16T03:17:56.027Z,8.50
2018-10-16T03:20:24.561Z,8.50
2018-10-16T03:22:53.106Z,8.40
2018-10-16T03:25:21.617Z,8.40
2018-10-16T03:27:50.136Z,8.40
2018-10-16T03:30:18.706Z,8.40
2018-10-16T03:32:47.268Z,8.40
2018-10-16T03:35:15.797Z,8.30
2018-10-16T03:37:44.505Z,8.30
2018-10-16T03:40:13.419Z,8.30
2018-10-16T03:42:42.674Z,8.30
2018-10-16T03:45:12.421Z,8.30
2018-10-16T03:47:41.482Z,8.30
2018-10-16T03:50:10.614Z,8.30
2018-10-16T03:52:39.131Z,8.30
2018-10-16T03:55:08.117Z,8.30
2018-10-16T03:57:36.944Z,8.30
2018-10-16T04:00:06.266Z,8.30
2018-10-16T04:02:34.822Z,8.30
2018-10-16T04:05:03.378Z,8.30
2018-10-16T04:07:32.122Z,8.20
2018-10-16T04:10:00.805Z,8.20
2018-10-16T04:12:29.331Z,8.30
2018-10-16T04:14:57.878Z,8.30
2018-10-16T04:17:26.673Z,8.30
2018-10-16T04:19:55.207Z,8.30
2018-10-16T04:22:23.834Z,8.30
2018-10-16T04:24:52.308Z,8.30
2018-10-16T04:27:20.851Z,8.30
2018-10-16T04:29:49.347Z,8.30
2018-10-16T04:32:17.857Z,8.20
2018-10-16T04:34:46.387Z,8.10
2018-10-16T04:37:14.886Z,8.10
2018-10-16T04:39:43.423Z,8.10
2018-10-16T04:42:11.974Z,8.00
2018-10-16T04:44:40.496Z,8.00
2018-10-16T04:47:09.013Z,7.90
2018-10-16T04:49:37.536Z,7.90
2018-10-16T04:52:06.108Z,7.90
2018-10-16T04:54:34.660Z,7.90
2018-10-16T04:57:03.180Z,7.80
2018-10-16T04:59:31.716Z,7.80
2018-10-16T05:02:00.248Z,7.80
2018-10-16T05:04:28.774Z,7.80
2018-10-16T05:06:57.283Z,7.80
2018-10-16T05:09:25.821Z,7.70
2018-10-16T05:11:55.524Z,7.70
2018-10-16T05:14:24.018Z,7.70
2018-10-16T05:16:52.671Z,7.70
2018-10-16T05:19:21.395Z,7.60
2018-10-16T05:21:49.927Z,7.60
2018-10-16T05:24:19.103Z,7.60
2018-10-16T05:26:47.625Z,7.60
2018-10-16T05:29:16.180Z,7.50
2018-10-16T05:31:44.789Z,7.50
2018-10-16T05:34:13.334Z,7.50
2018-10-16T05:36:41.836Z,7.50
2018-10-16T05:39:12.075Z,7.50
2018-10-16T05:41:40.720Z,7.50
2018-10-16T05:44:09.672Z,7.50
2018-10-16T05:46:38.355Z,7.60
2018-10-16T05:49:07.195Z,7.60
2018-10-16T05:51:35.737Z,7.70
2018-10-16T05:54:04.308Z,7.80
2018-10-16T05:56:32.821Z,7.80
2018-10-16T05:59:01.359Z,7.80
2018-10-16T06:01:29.861Z,7.70
2018-10-16T06:03:58.387Z,7.70
2018-10-16T06:06:26.897Z,7.70
2018-10-16T06:08:56.227Z,7.70
2018-10-16T06:11:24.724Z,7.70
2018-10-16T06:13:53.329Z,7.60
2018-10-16T06:16:21.982Z,7.60
2018-10-16T06:18:50.501Z,7.60
2018-10-16T06:21:19.453Z,7.60
2018-10-16T06:23:47.968Z,7.60
2018-10-16T06:26:16.491Z,7.70
2018-10-16T06:28:45.006Z,7.70
2018-10-16T06:31:13.527Z,7.80
2018-10-16T06:33:42.111Z,8.00
2018-10-16T06:36:10.591Z,8.10
2018-10-16T06:38:39.104Z,8.30
2018-10-16T06:41:07.756Z,8.40
2018-10-16T06:43:36.166Z,8.50
2018-10-16T06:46:05.128Z,8.60
2018-10-16T06:48:33.857Z,8.70
2018-10-16T06:51:02.199Z,8.80
2018-10-16T06:53:30.700Z,8.90
2018-10-16T06:55:59.496Z,9.00
2018-10-16T06:58:28.364Z,9.10
2018-10-16T07:00:56.960Z,9.20
2018-10-16T07:03:25.454Z,9.30
2018-10-16T07:05:53.981Z,9.40
2018-10-16T07:08:22.472Z,9.50
2018-10-16T07:10:51.041Z,9.60
2018-10-16T07:13:19.537Z,9.70
2018-10-16T07:15:48.061Z,9.80
2018-10-16T07:18:16.637Z,9.80
2018-10-16T07:20:45.165Z,9.90
2018-10-16T07:23:13.738Z,10.00
2018-10-16T07:25:42.258Z,10.00
2018-10-16T07:28:10.767Z,10.10
2018-10-16T07:30:39.309Z,10.10
2018-10-16T07:33:07.814Z,10.20
2018-10-16T07:35:36.362Z,10.30
2018-10-16T07:38:05.226Z,10.40
2018-10-16T07:40:33.586Z,10.50
2018-10-16T07:43:02.102Z,10.60
2018-10-16T07:45:30.619Z,10.70
2018-10-16T07:47:59.164Z,10.80
2018-10-16T07:50:27.743Z,10.90
2018-10-16T07:52:56.275Z,11.00
2018-10-16T07:55:24.877Z,11.10
2018-10-16T08:00:18.869Z,11.20
2018-10-16T08:02:47.424Z,11.50
2018-10-16T08:05:16.469Z,11.60
2018-10-16T08:07:45.046Z,11.70
2018-10-16T08:10:14.459Z,11.90
2018-10-16T08:12:43.634Z,11.90
2018-10-16T08:15:12.700Z,12.10
2018-10-16T08:17:41.699Z,12.20
2018-10-16T08:20:10.250Z,12.30
2018-10-16T08:22:38.969Z,12.40
2018-10-16T08:25:07.705Z,12.50
2018-10-16T08:27:36.617Z,12.60
2018-10-16T08:30:07.133Z,12.80
2018-10-16T08:32:35.721Z,12.90
2018-10-16T08:35:04.348Z,13.00
2018-10-16T08:39:43.389Z,13.10
2018-10-16T08:42:37.026Z,13.30
2018-10-16T08:45:17.510Z,13.40
2018-10-16T08:47:58.377Z,13.50
2018-10-16T08:50:39.655Z,13.60
2018-10-16T08:53:08.153Z,13.80
2018-10-16T08:55:37.169Z,13.90
2018-10-16T08:58:06.349Z,14.10
2018-10-16T09:00:36.025Z,14.20
2018-10-16T09:03:04.670Z,14.40
2018-10-16T09:05:33.201Z,14.50
2018-10-16T09:08:01.832Z,14.60
2018-10-16T09:10:31.037Z,14.70
2018-10-16T09:12:59.979Z,14.80
2018-10-16T09:15:28.516Z,14.90
2018-10-16T09:17:57.075Z,15.00
2018-10-16T09:20:25.632Z,15.10
2018-10-16T09:22:54.164Z,15.30
2018-10-16T09:25:22.683Z,15.40
2018-10-16T09:27:51.216Z,15.50
2018-10-16T09:30:19.715Z,15.70
2018-10-16T09:32:48.266Z,15.80
2018-10-16T09:35:16.777Z,15.90
2018-10-16T09:37:45.384Z,16.00
2018-10-16T09:40:13.829Z,16.10
2018-10-16T09:42:42.370Z,16.30
2018-10-16T09:45:11.663Z,16.40
2018-10-16T09:47:40.289Z,16.50
2018-10-16T09:50:09.960Z,16.60
2018-10-16T09:52:38.540Z,16.70
2018-10-16T09:55:08.569Z,16.80
2018-10-16T09:57:37.380Z,17.00
2018-10-16T10:00:08.879Z,17.10
2018-10-16T10:02:37.411Z,17.20
2018-10-16T10:05:06.082Z,17.30
2018-10-16T10:07:35.184Z,17.40
2018-10-16T10:10:03.697Z,17.60
2018-10-16T10:12:32.215Z,17.70
2018-10-16T10:15:00.810Z,17.80
2018-10-16T10:17:29.842Z,17.90
2018-10-16T10:19:58.336Z,18.20
2018-10-16T10:22:26.864Z,18.70
2018-10-16T10:24:55.377Z,19.20
2018-10-16T10:27:23.912Z,19.90
2018-10-16T10:29:52.456Z,20.60
2018-10-16T10:32:20.972Z,21.20
2018-10-16T10:34:49.468Z,21.90
2018-10-16T10:37:18.014Z,22.50
2018-10-16T10:39:46.552Z,23.00
2018-10-16T10:42:15.148Z,23.60
2018-10-16T10:44:43.644Z,24.10
2018-10-16T10:47:12.181Z,24.70
2018-10-16T10:49:40.677Z,25.10
2018-10-16T10:52:09.287Z,25.60
2018-10-16T10:54:37.803Z,26.10
2018-10-16T10:57:06.984Z,26.50
2018-10-16T10:59:35.433Z,26.80
2018-10-16T11:02:04.643Z,27.00
2018-10-16T11:04:33.187Z,27.30
2018-10-16T11:07:01.735Z,27.70
2018-10-16T11:09:30.277Z,28.20
2018-10-16T11:11:59.094Z,28.60
2018-10-16T11:14:28.420Z,29.10
2018-10-16T11:16:56.928Z,29.50
2018-10-16T11:19:25.484Z,30.00
2018-10-16T11:21:54.035Z,30.40
2018-10-16T11:24:22.601Z,30.80
2018-10-16T11:26:51.335Z,31.30
2018-10-16T11:29:20.042Z,31.40
2018-10-16T11:31:48.564Z,31.60
2018-10-16T11:34:17.106Z,31.60
2018-10-16T11:36:45.736Z,31.60
2018-10-16T11:39:14.355Z,31.70
2018-10-16T11:41:42.834Z,31.90
2018-10-16T11:44:12.545Z,32.10
2018-10-16T11:46:42.031Z,32.20
2018-10-16T11:49:11.517Z,32.20
2018-10-16T11:51:41.862Z,32.50
2018-10-16T11:54:11.270Z,32.60
2018-10-16T11:56:40.667Z,32.80
2018-10-16T11:59:09.992Z,32.70
2018-10-16T12:01:39.545Z,32.50
2018-10-16T12:04:09.120Z,32.10
2018-10-16T12:06:38.459Z,31.50
2018-10-16T12:09:09.968Z,30.90
2018-10-16T12:11:40.637Z,30.60
2018-10-16T12:14:11.039Z,30.00
2018-10-16T12:16:47.348Z,29.50
2018-10-16T12:19:22.547Z,29.10
2018-10-16T12:21:52.959Z,28.80
2018-10-16T12:24:22.173Z,28.30
2018-10-16T12:26:51.334Z,28.00
2018-10-16T12:29:21.598Z,27.90
2018-10-16T12:31:51.572Z,28.20
2018-10-16T12:34:21.813Z,28.80
2018-10-16T12:36:52.102Z,29.80
2018-10-16T12:39:22.129Z,30.70
2018-10-16T12:41:52.688Z,31.30
2018-10-16T12:44:22.428Z,31.50
2018-10-16T12:46:52.400Z,31.40
2018-10-16T12:49:22.827Z,31.10
2018-10-16T12:51:53.379Z,31.10
2018-10-16T12:54:23.633Z,31.60
2018-10-16T12:56:53.896Z,32.40
2018-10-16T12:59:24.009Z,33.30
2018-10-16T13:01:53.798Z,34.20
2018-10-16T13:04:24.134Z,34.90
2018-10-16T13:06:54.405Z,35.40
2018-10-16T13:09:24.541Z,36.00
2018-10-16T13:11:54.603Z,36.60
2018-10-16T13:14:25.000Z,37.10
2018-10-16T13:16:55.522Z,37.50
2018-10-16T13:19:26.049Z,37.60
2018-10-16T13:21:56.324Z,37.50
2018-10-16T13:24:25.925Z,36.90
2018-10-16T13:26:55.882Z,36.10
2018-10-16T13:29:26.257Z,35.40
2018-10-16T13:31:55.869Z,34.70
2018-10-16T13:34:25.607Z,33.90
2018-10-16T13:36:55.494Z,33.30
2018-10-16T13:39:25.100Z,32.90
2018-10-16T13:41:54.623Z,32.50
2018-10-16T13:44:23.803Z,32.30
2018-10-16T13:46:53.046Z,32.50
2018-10-16T13:49:22.854Z,32.90
2018-10-16T13:51:52.720Z,33.50
2018-10-16T13:54:22.277Z,34.30
2018-10-16T13:56:51.537Z,35.20
2018-10-16T13:59:20.934Z,36.10
2018-10-16T14:01:50.228Z,36.40
2018-10-16T14:04:19.007Z,36.00
2018-10-16T14:06:47.587Z,35.50
2018-10-16T14:09:16.148Z,35.10
2018-10-16T14:11:45.770Z,34.90
2018-10-16T14:14:14.540Z,35.10
2018-10-16T14:16:43.262Z,35.40
2018-10-16T14:19:11.726Z,35.70
2018-10-16T14:21:40.419Z,35.90
2018-10-16T14:24:08.938Z,36.00
2018-10-16T14:26:37.509Z,36.00
2018-10-16T14:29:06.357Z,36.00
2018-10-16T14:31:34.885Z,36.10
2018-10-16T14:34:03.555Z,36.20
2018-10-16T14:36:32.083Z,36.30
2018-10-16T14:39:00.582Z,36.70
2018-10-16T14:41:29.136Z,37.10
2018-10-16T14:43:57.654Z,37.50
2018-10-16T14:46:26.500Z,37.90
2018-10-16T14:48:55.046Z,38.30
2018-10-16T14:51:23.750Z,38.50
2018-10-16T14:53:52.349Z,38.50
2018-10-16T14:56:20.866Z,38.60
2018-10-16T14:58:49.365Z,38.60
2018-10-16T15:01:17.922Z,38.40
2018-10-16T15:03:46.541Z,38.10
2018-10-16T15:06:15.044Z,37.90
2018-10-16T15:08:43.595Z,37.50
2018-10-16T15:11:12.187Z,37.00
2018-10-16T15:13:41.056Z,36.20
2018-10-16T15:16:09.917Z,35.20
2018-10-16T15:18:38.819Z,34.00
2018-10-16T15:21:07.804Z,32.90
2018-10-16T15:23:36.331Z,31.90
2018-10-16T15:26:05.627Z,31.00
2018-10-16T15:28:34.151Z,30.40
2018-10-16T15:31:02.704Z,29.90
2018-10-16T15:33:31.260Z,29.50
2018-10-16T15:36:00.156Z,29.10
2018-10-16T15:38:29.060Z,28.70
2018-10-16T15:40:57.606Z,28.30
2018-10-16T15:43:26.134Z,28.00
2018-10-16T15:45:54.699Z,27.80
2018-10-16T15:48:23.234Z,27.80
2018-10-16T15:50:51.844Z,27.80
2018-10-16T15:53:20.330Z,27.50
2018-10-16T15:55:48.934Z,27.20
2018-10-16T15:58:17.593Z,26.80
2018-10-16T16:00:46.045Z,26.30
2018-10-16T16:03:14.580Z,25.90
2018-10-16T16:05:43.088Z,25.50
2018-10-16T16:08:11.688Z,25.10
2018-10-16T16:10:40.134Z,24.70
2018-10-16T16:13:10.209Z,24.30
2018-10-16T16:15:39.165Z,23.90
2018-10-16T16:18:07.815Z,23.50
2018-10-16T16:20:36.320Z,23.20
2018-10-16T16:23:04.953Z,22.80
2018-10-16T16:25:33.548Z,22.50
2018-10-16T16:28:02.143Z,22.20
2018-10-16T16:30:30.608Z,21.90
2018-10-16T16:32:59.236Z,21.70
2018-10-16T16:35:27.761Z,21.50
2018-10-16T16:37:56.344Z,21.20
2018-10-16T16:40:24.832Z,20.90
2018-10-16T16:42:53.380Z,20.70
2018-10-16T16:45:21.872Z,20.50
2018-10-16T16:47:50.412Z,20.20
2018-10-16T16:50:18.916Z,20.00
2018-10-16T16:52:47.445Z,19.80
2018-10-16T16:55:16.580Z,19.60
2018-10-16T16:57:45.163Z,19.40
2018-10-16T17:00:14.680Z,19.20
2018-10-16T17:02:44.597Z,19.00
2018-10-16T17:05:13.813Z,18.80
2018-10-16T17:07:42.923Z,18.60
2018-10-16T17:10:11.684Z,18.50
2018-10-16T17:12:40.891Z,18.30
2018-10-16T17:15:12.096Z,18.20
2018-10-16T17:17:40.624Z,18.10
2018-10-16T17:20:10.236Z,17.90
2018-10-16T17:22:39.251Z,17.70
2018-10-16T17:25:09.717Z,17.60
2018-10-16T17:27:38.216Z,17.50
2018-10-16T17:30:10.198Z,17.40
2018-10-16T17:32:38.945Z,17.20
2018-10-16T17:35:08.471Z,17.20
2018-10-16T17:37:36.996Z,17.00
2018-10-16T17:40:06.854Z,16.90
2018-10-16T17:42:35.381Z,16.80
2018-10-16T17:45:04.014Z,16.70
2018-10-16T17:47:32.540Z,16.60
2018-10-16T17:50:01.103Z,16.50
2018-10-16T17:52:29.628Z,16.40
2018-10-16T17:54:58.151Z,16.30
2018-10-16T17:57:26.729Z,16.30
2018-10-16T17:59:55.287Z,16.20
2018-10-16T18:02:23.817Z,16.10
2018-10-16T18:04:52.371Z,16.00
2018-10-16T18:07:20.906Z,15.90
2018-10-16T18:09:49.431Z,15.90
2018-10-16T18:12:17.998Z,15.80
2018-10-16T18:14:46.517Z,15.80
2018-10-16T18:17:15.008Z,15.70
2018-10-16T18:19:43.557Z,15.60
2018-10-16T18:22:12.060Z,15.50
2018-10-16T18:24:40.658Z,15.50
2018-10-16T18:27:09.172Z,15.40
2018-10-16T18:29:37.746Z,15.30
2018-10-16T18:32:06.792Z,15.30
2018-10-16T18:34:35.327Z,15.20
2018-10-16T18:37:03.860Z,15.20
2018-10-16T18:39:32.448Z,15.10
2018-10-16T18:42:01.118Z,15.00
2018-10-16T18:44:29.688Z,15.00
2018-10-16T18:46:58.197Z,14.90
2018-10-16T18:49:26.771Z,14.90
2018-10-16T18:51:55.337Z,14.80
2018-10-16T18:54:24.898Z,14.70
2018-10-16T18:56:53.461Z,14.70
2018-10-16T18:59:22.023Z,14.60
2018-10-16T19:01:50.701Z,14.60
2018-10-16T19:04:19.240Z,14.50
2018-10-16T19:06:47.828Z,14.40
2018-10-16T19:09:16.428Z,14.40
2018-10-16T19:11:45.058Z,14.30
2018-10-16T19:14:13.596Z,14.30
2018-10-16T19:16:42.144Z,14.20
2018-10-16T19:19:10.641Z,14.10
2018-10-16T19:21:39.304Z,14.10
2018-10-16T19:24:08.261Z,14.00
2018-10-16T19:26:36.831Z,13.90
2018-10-16T19:29:05.529Z,13.80
2018-10-16T19:31:34.091Z,13.80
2018-10-16T19:34:02.617Z,13.70
2018-10-16T19:36:31.288Z,13.70
2018-10-16T19:38:59.853Z,13.60
2018-10-16T19:41:28.446Z,13.60
2018-10-16T19:43:57.018Z,13.60
2018-10-16T19:46:26.501Z,13.50
2018-10-16T19:48:55.058Z,13.50
2018-10-16T19:51:23.573Z,13.40
2018-10-16T19:53:52.128Z,13.40
2018-10-16T19:56:20.631Z,13.40
2018-10-16T19:58:49.155Z,13.30
2018-10-16T20:01:17.697Z,13.20
2018-10-16T20:03:46.204Z,13.20
2018-10-16T20:06:14.743Z,13.20
2018-10-16T20:08:43.349Z,13.20
2018-10-16T20:11:12.867Z,13.20
2018-10-16T20:13:43.310Z,13.20
2018-10-16T20:16:12.470Z,13.10
2018-10-16T20:18:41.218Z,13.10
2018-10-16T20:21:10.398Z,13.00
2018-10-16T20:23:40.183Z,12.90
2018-10-16T20:26:09.907Z,12.90
2018-10-16T20:28:38.421Z,12.80
2018-10-16T20:31:07.023Z,12.70
2018-10-16T20:33:36.287Z,12.70
2018-10-16T20:36:04.992Z,12.60
2018-10-16T20:38:33.519Z,12.60
2018-10-16T20:41:02.078Z,12.50
2018-10-16T20:43:31.259Z,12.50
2018-10-16T20:45:59.979Z,12.40
2018-10-16T20:48:28.533Z,12.40
2018-10-16T20:50:57.064Z,12.40
2018-10-16T20:53:25.627Z,12.40
2018-10-16T20:55:54.196Z,12.30
2018-10-16T20:58:22.791Z,12.30
2018-10-16T21:00:52.144Z,12.30
2018-10-16T21:03:20.888Z,12.20
2018-10-16T21:05:49.642Z,12.20
2018-10-16T21:08:18.046Z,12.10
2018-10-16T21:10:46.578Z,12.10
2018-10-16T21:13:15.162Z,12.10
2018-10-16T21:15:43.698Z,12.00
2018-10-16T21:18:12.533Z,12.00
2018-10-16T21:20:41.045Z,11.90
2018-10-16T21:23:09.655Z,11.90
2018-10-16T21:25:38.156Z,11.80
2018-10-16T21:28:06.861Z,11.80
2018-10-16T21:30:35.383Z,11.70
2018-10-16T21:33:03.992Z,11.70
2018-10-16T21:35:33.203Z,11.60
2018-10-16T21:38:01.741Z,11.60
2018-10-16T21:40:30.241Z,11.60
2018-10-16T21:42:59.070Z,11.50
2018-10-16T21:45:27.646Z,11.50
2018-10-16T21:47:56.203Z,11.50
2018-10-16T21:50:24.721Z,11.50
2018-10-16T21:52:53.334Z,11.50
2018-10-16T21:55:21.848Z,11.40
2018-10-16T21:57:50.358Z,11.40
2018-10-16T22:00:24.365Z,11.40
2018-10-16T22:02:52.886Z,11.40
2018-10-16T22:05:25.207Z,11.30
2018-10-16T22:07:55.984Z,11.30
2018-10-16T22:10:24.858Z,11.30
2018-10-16T22:12:53.387Z,11.20
2018-10-16T22:15:22.109Z,11.20
2018-10-16T22:17:50.926Z,11.20
2018-10-16T22:20:19.552Z,11.20
2018-10-16T22:22:48.189Z,11.10
2018-10-16T22:25:16.972Z,11.10
2018-10-16T22:27:45.438Z,11.10
2018-10-16T22:30:14.051Z,11.20
2018-10-16T22:32:42.590Z,11.20
2018-10-16T22:35:11.824Z,11.10
2018-10-16T22:37:40.329Z,11.10
2018-10-16T22:40:09.875Z,11.00
2018-10-16T22:42:38.405Z,10.90
2018-10-16T22:45:07.944Z,10.90
2018-10-16T22:47:36.548Z,10.80
2018-10-16T22:50:07.623Z,10.80
2018-10-16T22:52:36.151Z,10.70
2018-10-16T22:55:05.535Z,10.70
2018-10-16T22:57:34.056Z,10.70
2018-10-16T23:00:02.590Z,10.60
2018-10-16T23:02:31.126Z,10.60
2018-10-16T23:04:59.673Z,10.60
2018-10-16T23:07:28.189Z,10.50
2018-10-16T23:09:56.696Z,10.50
2018-10-16T23:12:25.233Z,10.50
2018-10-16T23:14:53.865Z,10.40
2018-10-16T23:17:22.395Z,10.40
2018-10-16T23:19:50.926Z,10.30
2018-10-16T23:22:19.425Z,10.30
2018-10-16T23:24:47.972Z,10.30
2018-10-16T23:27:16.522Z,10.20
2018-10-16T23:29:45.061Z,10.20
2018-10-16T23:32:13.562Z,10.10
2018-10-16T23:34:42.058Z,10.10
2018-10-16T23:37:10.679Z,10.10
2018-10-16T23:39:39.236Z,10.00
2018-10-16T23:42:07.752Z,10.00
2018-10-16T23:44:36.282Z,9.90
2018-10-16T23:47:04.845Z,9.90
2018-10-16T23:49:33.375Z,9.90
2018-10-16T23:52:01.873Z,9.90
2018-10-16T23:54:30.424Z,9.80
2018-10-16T23:56:58.946Z,9.90
2018-10-16T23:59:27.555Z,9.80
